Dolton, IL (60419)

8:18 AM CDT on August 30, 2016 (GMT -0500)
Thornton Junction | | Change Station

Elev 614 ft 41.59 °N, 87.60 °W | Updated 8 minutes ago

Rain
Rain
72.9 °F
Feels Like 72.9 °F
N
1.7
Wind Variable Wind from SW

Today
High -- | Low -- °F
--% Chance of Precip.
Yesterday
High -- | Low -- °F
Precip. -- in
Pressure 30.17 in
Visibility 1.2 miles
Clouds Overcast 700 ft
Dew Point 72 °F
Humidity 97%
Rainfall 0.09 in
Snow Depth Not available.
6:14 AM 7:26 PM
Waning Crescent, 4% visible
METAR KIGQ 301315Z AUTO 24006KT 1 1/4SM RA OVC007 23/23 A3017 RMK AO2 LTG DSNT NE P0001 T02260226
Pressure 30.17 in
Visibility 1.2 miles
Clouds Overcast 700 ft
Dew Point 72 °F
Humidity 97%
Rainfall 0.09 in
Snow Depth Not available.
6:14 AM 7:26 PM
Waning Crescent, 4% visible
METAR KIGQ 301315Z AUTO 24006KT 1 1/4SM RA OVC007 23/23 A3017 RMK AO2 LTG DSNT NE P0001 T02260226

10-Day Weather Forecast

Almanac

Astronomy

Aug. 30, 2016 Rise Set
Actual Time
Civil Twilight
Nautical Twilight
Astronomical Twilight
Moon
Length of Visible Light
Length of Day
Tomorrow will be .
, % of the Moon is Illuminated

Today's Extremes

State Highs State Lows

Community

WunderPhotos

Upload Photos

1,935,831 photos uploaded!

WunderBlog® & News

Nearby

Air Quality

  Air Quality AQ Index Pollutant
Not available.

Snow Depth

Station Depth Elevation

Earthquake Activity

City Distance Mag. Time & Date
Minimum magnitude displayed is 2.5.

Coastal Water Temperatures

Place Temperature

Stations

Nearby Weather Stations

Station Location Temp. Windchill Dew Point Humidity Wind Precip. Elev Updated Type
                   

Watches & Warnings

There are currently no watches in effect.